createdAt,value
2023-02-24T00:00:13.449Z,94917.66
2023-02-24T00:02:39.921Z,94913.03
2023-02-24T00:05:07.252Z,94921.13
2023-02-24T00:07:33.724Z,94913.81
2023-02-24T00:10:00.235Z,94911.13
2023-02-24T00:12:26.795Z,94913.53
2023-02-24T00:14:53.302Z,94912.44
2023-02-24T00:17:19.885Z,94914.81
2023-02-24T00:19:46.612Z,94915.00
2023-02-24T00:22:13.234Z,94912.78
2023-02-24T00:24:39.775Z,94908.69
2023-02-24T00:27:06.882Z,94904.09
2023-02-24T00:29:33.481Z,94905.38
2023-02-24T00:32:00.730Z,94898.91
2023-02-24T00:34:32.179Z,94899.38
2023-02-24T00:36:59.674Z,94895.59
2023-02-24T00:39:27.869Z,94883.66
2023-02-24T00:41:54.798Z,94884.47
2023-02-24T00:44:21.313Z,94884.97
2023-02-24T00:46:47.806Z,94888.75
2023-02-24T00:49:18.311Z,94881.75
2023-02-24T00:51:47.707Z,94879.41
2023-02-24T00:54:15.251Z,94882.09
2023-02-24T00:56:43.860Z,94886.97
2023-02-24T00:59:12.710Z,94882.19
2023-02-24T01:01:40.079Z,94879.00
2023-02-24T01:04:07.845Z,94880.41
2023-02-24T01:06:34.542Z,94884.84
2023-02-24T01:09:01.365Z,94881.97
2023-02-24T01:11:35.313Z,94872.56
2023-02-24T01:14:06.086Z,94867.78
2023-02-24T01:16:33.487Z,94866.19
2023-02-24T01:19:00.815Z,94863.31
2023-02-24T01:21:27.800Z,94863.91
2023-02-24T01:23:55.101Z,94856.91
2023-02-24T01:26:21.569Z,94860.25
2023-02-24T01:28:48.118Z,94849.75
2023-02-24T01:31:16.773Z,94856.56
2023-02-24T01:33:44.469Z,94849.56
2023-02-24T01:36:17.725Z,94847.47
2023-02-24T01:38:45.244Z,94847.78
2023-02-24T01:41:17.197Z,94839.97
2023-02-24T01:44:02.572Z,94848.69
2023-02-24T01:46:34.810Z,94845.50
2023-02-24T01:49:09.538Z,94839.31
2023-02-24T01:51:39.954Z,94838.53
2023-02-24T01:54:09.709Z,94836.94
2023-02-24T01:56:36.445Z,94836.13
2023-02-24T01:59:05.088Z,94832.63
2023-02-24T02:01:31.814Z,94826.75
2023-02-24T02:04:05.595Z,94831.34
2023-02-24T02:06:32.528Z,94827.84
2023-02-24T02:08:59.754Z,94819.25
2023-02-24T02:11:26.493Z,94814.97
2023-02-24T02:13:53.790Z,94811.47
2023-02-24T02:16:50.900Z,94808.91
2023-02-24T02:19:20.484Z,94811.91
2023-02-24T02:21:46.897Z,94806.03
2023-02-24T02:24:32.398Z,94806.94
2023-02-24T02:27:11.623Z,94813.72
2023-02-24T02:29:47.328Z,94809.53
2023-02-24T02:32:44.890Z,94812.34
2023-02-24T02:35:37.092Z,94809.78
2023-02-24T02:38:09.600Z,94810.38
2023-02-24T02:40:36.121Z,94806.69
2023-02-24T02:43:16.732Z,94804.09
2023-02-24T02:45:45.602Z,94805.78
2023-02-24T02:48:34.100Z,94808.59
2023-02-24T02:51:07.544Z,94803.31
2023-02-24T02:53:37.497Z,94805.84
2023-02-24T02:56:09.840Z,94806.72
2023-02-24T02:58:40.619Z,94808.13
2023-02-24T03:01:09.861Z,94814.88
2023-02-24T03:03:43.574Z,94808.53
2023-02-24T03:06:30.233Z,94814.50
2023-02-24T03:09:02.639Z,94807.81
2023-02-24T03:11:29.531Z,94807.03
2023-02-24T03:13:57.150Z,94806.03
2023-02-24T03:16:27.229Z,94800.44
2023-02-24T03:19:00.318Z,94805.63
2023-02-24T03:21:33.293Z,94800.84
2023-02-24T03:24:02.269Z,94806.81
2023-02-24T03:26:52.926Z,94801.53
2023-02-24T03:29:26.692Z,94797.06
2023-02-24T03:32:13.546Z,94801.13
2023-02-24T03:34:49.115Z,94800.16
2023-02-24T03:37:15.706Z,94798.84
2023-02-24T03:39:42.800Z,94794.84
2023-02-24T03:42:19.212Z,94795.41
2023-02-24T03:44:46.774Z,94792.22
2023-02-24T03:47:14.897Z,94799.78
2023-02-24T03:49:41.542Z,94794.72
2023-02-24T03:52:20.614Z,94793.41
2023-02-24T03:55:05.541Z,94788.59
2023-02-24T03:57:57.365Z,94785.44
2023-02-24T04:00:41.170Z,94784.13
2023-02-24T04:03:16.698Z,94790.91
2023-02-24T04:05:58.148Z,94791.19
2023-02-24T04:08:28.075Z,94783.41
2023-02-24T04:11:09.884Z,94783.41
2023-02-24T04:13:59.968Z,94783.91
2023-02-24T04:16:34.241Z,94777.44
2023-02-24T04:19:04.942Z,94769.09
2023-02-24T04:21:37.610Z,94765.28
2023-02-24T04:24:08.234Z,94769.28
2023-02-24T04:26:37.334Z,94762.81
2023-02-24T04:29:04.271Z,94759.84
2023-02-24T04:31:33.531Z,94753.34
2023-02-24T04:34:00.839Z,94750.66
2023-02-24T04:36:35.485Z,94746.56
2023-02-24T04:39:02.198Z,94747.88
2023-02-24T04:41:30.033Z,94747.59
2023-02-24T04:43:56.774Z,94737.31
2023-02-24T04:46:23.447Z,94738.34
2023-02-24T04:48:50.013Z,94737.44
2023-02-24T04:51:16.603Z,94736.53
2023-02-24T04:53:43.133Z,94723.31
2023-02-24T04:56:09.916Z,94731.28
2023-02-24T04:58:38.804Z,94726.88
2023-02-24T05:01:10.203Z,94717.88
2023-02-24T05:03:38.134Z,94718.09
2023-02-24T05:06:04.969Z,94714.00
2023-02-24T05:08:31.818Z,94712.31
2023-02-24T05:10:58.818Z,94712.19
2023-02-24T05:13:28.477Z,94704.31
2023-02-24T05:15:57.312Z,94698.31
2023-02-24T05:18:24.758Z,94691.22
2023-02-24T05:20:56.243Z,94698.72
2023-02-24T05:23:43.332Z,94688.13
2023-02-24T05:26:11.912Z,94684.53
2023-02-24T05:28:40.229Z,94681.69
2023-02-24T05:31:09.750Z,94685.69
2023-02-24T05:33:37.852Z,94682.09
2023-02-24T05:36:07.323Z,94672.09
2023-02-24T05:38:34.701Z,94665.31
2023-02-24T05:41:12.771Z,94674.97
2023-02-24T05:43:39.282Z,94669.28
2023-02-24T05:46:05.963Z,94658.50
2023-02-24T05:48:33.500Z,94658.81
2023-02-24T05:50:59.972Z,94657.53
2023-02-24T05:53:27.348Z,94655.16
2023-02-24T05:55:53.913Z,94657.63
2023-02-24T05:58:20.416Z,94652.56
2023-02-24T06:00:46.982Z,94655.06
2023-02-24T06:03:13.603Z,94652.19
2023-02-24T06:05:40.108Z,94655.19
2023-02-24T06:08:06.642Z,94654.41
2023-02-24T06:10:33.693Z,94660.88
2023-02-24T06:13:03.822Z,94659.78
2023-02-24T06:15:30.467Z,94665.97
2023-02-24T06:17:57.011Z,94661.06
2023-02-24T06:20:25.236Z,94656.69
2023-02-24T06:22:51.816Z,94655.25
2023-02-24T06:25:18.351Z,94648.94
2023-02-24T06:27:45.067Z,94657.72
2023-02-24T06:30:12.377Z,94655.69
2023-02-24T06:32:39.394Z,94653.69
2023-02-24T06:35:06.243Z,94654.66
2023-02-24T06:37:32.803Z,94661.03
2023-02-24T06:39:59.450Z,94659.00
2023-02-24T06:42:26.008Z,94667.25
2023-02-24T06:44:52.613Z,94665.06
2023-02-24T06:47:19.116Z,94667.44
2023-02-24T06:49:45.690Z,94671.13
2023-02-24T06:52:12.257Z,94668.13
2023-02-24T06:54:38.849Z,94672.91
2023-02-24T06:57:05.441Z,94679.56
2023-02-24T06:59:32.419Z,94663.06
2023-02-24T07:02:00.441Z,94668.66
2023-02-24T07:04:28.878Z,94662.16
2023-02-24T07:06:59.964Z,94670.41
2023-02-24T07:09:26.966Z,94670.31
2023-02-24T07:11:54.976Z,94666.19
2023-02-24T07:14:27.041Z,94672.38
2023-02-24T07:16:53.776Z,94662.84
2023-02-24T07:19:23.887Z,94663.69
2023-02-24T07:21:50.940Z,94662.25
2023-02-24T07:24:20.577Z,94657.31
2023-02-24T07:26:47.226Z,94656.41
2023-02-24T07:29:13.814Z,94655.47
2023-02-24T07:31:40.684Z,94653.44
2023-02-24T07:34:07.314Z,94645.22
2023-02-24T07:36:33.923Z,94650.97
2023-02-24T07:39:00.546Z,94650.81
2023-02-24T07:41:27.981Z,94653.03
2023-02-24T07:43:55.224Z,94656.06
2023-02-24T07:46:24.320Z,94644.19
2023-02-24T07:48:52.665Z,94652.63
2023-02-24T07:51:22.166Z,94652.47
2023-02-24T07:53:52.314Z,94652.63
2023-02-24T07:56:21.773Z,94642.00
2023-02-24T07:58:48.619Z,94640.72
2023-02-24T08:01:15.218Z,94636.00
2023-02-24T08:03:41.874Z,94641.38
2023-02-24T08:06:08.623Z,94640.66
2023-02-24T08:08:35.066Z,94634.47
2023-02-24T08:11:01.614Z,94632.56
2023-02-24T08:13:28.120Z,94625.72
2023-02-24T08:15:54.638Z,94625.06
2023-02-24T08:18:21.312Z,94622.81
2023-02-24T08:20:48.436Z,94618.03
2023-02-24T08:23:14.951Z,94618.19
2023-02-24T08:25:41.466Z,94608.91
2023-02-24T08:28:09.878Z,94612.25
2023-02-24T08:30:39.528Z,94613.34
2023-02-24T08:33:09.825Z,94606.00
2023-02-24T08:35:39.285Z,94614.88
2023-02-24T08:38:15.517Z,94603.38
2023-02-24T08:40:49.641Z,94601.91
2023-02-24T08:43:28.612Z,94599.38
2023-02-24T08:45:56.989Z,94587.69
2023-02-24T08:48:26.767Z,94591.00
2023-02-24T08:50:55.310Z,94586.19
2023-02-24T08:53:23.170Z,94580.25
2023-02-24T08:55:53.378Z,94583.91
2023-02-24T08:58:21.513Z,94586.09
2023-02-24T09:00:48.053Z,94587.81
2023-02-24T09:03:19.689Z,94578.72
2023-02-24T09:05:46.325Z,94577.06
2023-02-24T09:08:12.921Z,94579.28
2023-02-24T09:10:39.940Z,94570.94
2023-02-24T09:13:06.487Z,94561.81
2023-02-24T09:15:32.999Z,94570.88
2023-02-24T09:17:59.604Z,94571.91
2023-02-24T09:20:27.053Z,94556.38
2023-02-24T09:22:54.984Z,94561.25
2023-02-24T09:25:21.829Z,94555.44
2023-02-24T09:28:05.686Z,94551.84
2023-02-24T09:30:32.378Z,94544.41
2023-02-24T09:32:59.062Z,94543.19
2023-02-24T09:35:25.834Z,94540.38
2023-02-24T09:37:52.383Z,94543.78
2023-02-24T09:40:19.084Z,94538.94
2023-02-24T09:42:46.271Z,94534.19
2023-02-24T09:45:23.868Z,94534.19
2023-02-24T09:47:51.210Z,94528.19
2023-02-24T09:50:55.466Z,94528.41
2023-02-24T09:53:16.846Z,94522.44
2023-02-24T09:55:51.178Z,94523.00
2023-02-24T09:58:44.097Z,94517.31
2023-02-24T10:01:28.977Z,94505.09
2023-02-24T10:04:08.753Z,94505.34
2023-02-24T10:06:48.122Z,94495.84
2023-02-24T10:09:36.402Z,94494.00
2023-02-24T10:12:14.849Z,94490.84
2023-02-24T10:15:00.973Z,94485.59
2023-02-24T10:17:28.559Z,94481.84
2023-02-24T10:19:59.457Z,94473.78
2023-02-24T10:22:47.013Z,94476.63
2023-02-24T10:25:49.730Z,94473.00
2023-02-24T10:28:25.537Z,94469.25
2023-02-24T10:31:13.167Z,94468.47
2023-02-24T10:33:42.830Z,94462.00
2023-02-24T10:36:13.778Z,94453.06
2023-02-24T10:38:40.565Z,94456.75
2023-02-24T10:41:10.081Z,94452.56
2023-02-24T10:43:36.796Z,94450.72
2023-02-24T10:46:03.765Z,94456.81
2023-02-24T10:48:41.502Z,94446.13
2023-02-24T10:51:14.969Z,94444.47
2023-02-24T10:53:41.707Z,94439.31
2023-02-24T10:56:13.249Z,94443.88
2023-02-24T10:58:39.820Z,94439.50
2023-02-24T11:01:11.692Z,94434.94
2023-02-24T11:03:49.072Z,94437.94
2023-02-24T11:06:23.734Z,94419.38
2023-02-24T11:08:58.121Z,94419.69
2023-02-24T11:11:31.809Z,94418.25
2023-02-24T11:14:01.426Z,94412.53
2023-02-24T11:16:28.049Z,94399.34
2023-02-24T11:18:55.730Z,94393.66
2023-02-24T11:21:25.557Z,94394.44
2023-02-24T11:24:00.295Z,94387.22
2023-02-24T11:26:36.126Z,94381.06
2023-02-24T11:29:07.364Z,94377.25
2023-02-24T11:31:52.617Z,94374.63
2023-02-24T11:34:30.144Z,94370.00
2023-02-24T11:37:15.331Z,94362.00
2023-02-24T11:39:57.013Z,94357.03
2023-02-24T11:42:31.515Z,94351.31
2023-02-24T11:45:35.504Z,94345.06
2023-02-24T11:48:05.153Z,94342.06
2023-02-24T11:50:34.489Z,94329.72
2023-02-24T11:53:07.930Z,94326.72
2023-02-24T11:55:40.197Z,94316.22
2023-02-24T11:58:23.737Z,94313.56
2023-02-24T12:01:13.850Z,94318.66
2023-02-24T12:03:56.832Z,94313.66
2023-02-24T12:06:42.239Z,94312.06
2023-02-24T12:09:22.377Z,94298.78
2023-02-24T12:12:08.595Z,94298.75
2023-02-24T12:14:47.471Z,94292.06
2023-02-24T12:17:30.841Z,94290.84
2023-02-24T12:20:16.933Z,94294.31
2023-02-24T12:22:51.456Z,94282.91
2023-02-24T12:25:25.100Z,94279.41
2023-02-24T12:28:14.014Z,94261.03
2023-02-24T12:30:51.587Z,94261.78
2023-02-24T12:33:36.434Z,94264.84
2023-02-24T12:36:22.529Z,94258.59
2023-02-24T12:38:51.816Z,94259.03
2023-02-24T12:41:57.267Z,94252.78
2023-02-24T12:44:35.588Z,94250.41
2023-02-24T12:47:10.526Z,94247.69
2023-02-24T12:50:18.563Z,94249.22
2023-02-24T12:53:20.411Z,94244.84
2023-02-24T12:55:52.888Z,94231.22
2023-02-24T12:58:25.224Z,94232.00
2023-02-24T13:01:00.215Z,94225.78
2023-02-24T13:04:02.328Z,94217.25
2023-02-24T13:06:48.936Z,94222.69
2023-02-24T13:09:29.319Z,94221.94
2023-02-24T13:12:14.591Z,94218.03
2023-02-24T13:14:42.351Z,94213.75
2023-02-24T13:17:08.868Z,94212.59
2023-02-24T13:19:35.532Z,94211.81
2023-02-24T13:22:05.709Z,94209.50
2023-02-24T13:24:32.780Z,94210.72
2023-02-24T13:27:43.839Z,94207.19
2023-02-24T13:30:16.151Z,94198.59
2023-02-24T13:32:46.457Z,94201.69
2023-02-24T13:35:15.594Z,94197.88
2023-02-24T13:37:44.863Z,94193.22
2023-02-24T13:40:20.297Z,94197.94
2023-02-24T13:42:57.121Z,94189.16
2023-02-24T13:45:34.134Z,94188.88
2023-02-24T13:48:19.541Z,94181.09
2023-02-24T13:51:15.331Z,94179.59
2023-02-24T13:53:57.687Z,94174.63
2023-02-24T13:56:26.757Z,94175.38
2023-02-24T13:59:32.687Z,94177.66
2023-02-24T14:02:26.871Z,94164.34
2023-02-24T14:04:55.960Z,94157.31
2023-02-24T14:07:25.790Z,94160.84
2023-02-24T14:09:56.713Z,94157.31
2023-02-24T14:12:30.286Z,94155.75
2023-02-24T14:14:57.694Z,94157.75
2023-02-24T14:17:25.674Z,94153.03
2023-02-24T14:19:52.319Z,94154.88
2023-02-24T14:22:20.643Z,94155.19
2023-02-24T14:24:47.910Z,94151.19
2023-02-24T14:27:22.319Z,94153.50
2023-02-24T14:29:51.694Z,94149.16
2023-02-24T14:32:24.357Z,94145.56
2023-02-24T14:34:53.014Z,94150.53
2023-02-24T14:37:26.628Z,94147.75
2023-02-24T14:39:56.679Z,94149.22
2023-02-24T14:42:24.501Z,94136.22
2023-02-24T14:44:53.736Z,94122.94
2023-02-24T14:47:24.184Z,94119.00
2023-02-24T14:49:55.002Z,94115.41
2023-02-24T14:52:34.896Z,94137.06
2023-02-24T14:55:07.567Z,94133.84
2023-02-24T14:57:42.787Z,94121.66
2023-02-24T15:00:19.781Z,94128.19
2023-02-24T15:02:51.492Z,94121.09
2023-02-24T15:05:18.656Z,94119.44
2023-02-24T15:07:46.004Z,94109.63
2023-02-24T15:10:25.376Z,94107.56
2023-02-24T15:13:12.734Z,94103.56
2023-02-24T15:15:39.490Z,94097.19
2023-02-24T15:18:17.691Z,94104.09
2023-02-24T15:20:44.505Z,94095.41
2023-02-24T15:23:27.054Z,94091.34
2023-02-24T15:25:53.625Z,94098.56
2023-02-24T15:28:35.059Z,94105.00
2023-02-24T15:31:17.359Z,94065.28
2023-02-24T15:33:55.537Z,94061.28
2023-02-24T15:36:23.816Z,94093.66
2023-02-24T15:38:59.935Z,94094.88
2023-02-24T15:41:38.610Z,94083.59
2023-02-24T15:44:05.109Z,94078.16
2023-02-24T15:46:34.355Z,94078.56
2023-02-24T15:49:02.063Z,94075.06
2023-02-24T15:51:40.283Z,94065.63
2023-02-24T15:54:12.434Z,94058.31
2023-02-24T15:56:40.709Z,94073.41
2023-02-24T15:59:07.232Z,94061.84
2023-02-24T16:01:34.243Z,94069.41
2023-02-24T16:04:01.621Z,94049.94
2023-02-24T16:06:29.059Z,94051.72
2023-02-24T16:08:57.461Z,94046.66
2023-02-24T16:11:27.646Z,94037.19
2023-02-24T16:13:57.724Z,94025.81
2023-02-24T16:16:26.157Z,94030.75
2023-02-24T16:18:52.988Z,94026.78
2023-02-24T16:21:19.809Z,94019.66
2023-02-24T16:23:46.441Z,94014.94
2023-02-24T16:26:16.940Z,94009.03
2023-02-24T16:28:49.267Z,94005.06
2023-02-24T16:31:15.865Z,94006.56
2023-02-24T16:33:54.004Z,94006.47
2023-02-24T16:36:24.214Z,94012.25
2023-02-24T16:38:51.114Z,94017.25
2023-02-24T16:41:17.891Z,94021.47
2023-02-24T16:43:44.378Z,94023.75
2023-02-24T16:46:16.856Z,94025.22
2023-02-24T16:48:46.844Z,94019.38
2023-02-24T16:51:14.099Z,94025.94
2023-02-24T16:53:40.852Z,94032.50
2023-02-24T16:56:08.276Z,94040.66
2023-02-24T16:58:35.667Z,94045.19
2023-02-24T17:01:04.149Z,94044.78
2023-02-24T17:03:44.738Z,94047.06
2023-02-24T17:06:11.688Z,94044.69
2023-02-24T17:08:38.516Z,94037.59
2023-02-24T17:11:05.256Z,94047.91
2023-02-24T17:13:31.806Z,94033.28
2023-02-24T17:15:58.554Z,94038.34
2023-02-24T17:18:26.130Z,94054.47
2023-02-24T17:20:53.385Z,94039.13
2023-02-24T17:23:20.463Z,94052.50
2023-02-24T17:25:52.966Z,94050.63
2023-02-24T17:28:20.025Z,94058.00
2023-02-24T17:30:46.930Z,94058.47
2023-02-24T17:33:13.624Z,94056.34
2023-02-24T17:35:41.556Z,94058.75
2023-02-24T17:38:16.240Z,94052.94
2023-02-24T17:40:44.551Z,94053.03
2023-02-24T17:43:11.361Z,94058.94
2023-02-24T17:45:41.216Z,94058.13
2023-02-24T17:48:07.845Z,94040.78
2023-02-24T17:50:34.735Z,94035.16
2023-02-24T17:53:01.260Z,94025.25
2023-02-24T17:55:27.868Z,94027.50
2023-02-24T17:57:57.033Z,94031.22
2023-02-24T18:00:23.806Z,94030.78
2023-02-24T18:02:50.494Z,94038.34
2023-02-24T18:05:17.095Z,94025.03
2023-02-24T18:07:43.747Z,94004.06
2023-02-24T18:10:10.961Z,94005.44
2023-02-24T18:12:38.474Z,93991.44
2023-02-24T18:15:08.942Z,93989.75
2023-02-24T18:17:37.762Z,93991.00
2023-02-24T18:20:05.912Z,93986.72
2023-02-24T18:22:32.445Z,93984.03
2023-02-24T18:24:59.076Z,93970.59
2023-02-24T18:27:25.824Z,93966.41
2023-02-24T18:29:53.305Z,93972.63
2023-02-24T18:32:20.036Z,93964.88
2023-02-24T18:34:46.830Z,93964.88
2023-02-24T18:37:14.014Z,93955.59
2023-02-24T18:39:40.527Z,93955.59
2023-02-24T18:42:07.264Z,93949.41
2023-02-24T18:44:33.941Z,93940.63
2023-02-24T18:47:00.780Z,93941.88
2023-02-24T18:49:27.334Z,93937.69
2023-02-24T18:51:53.931Z,93938.94
2023-02-24T18:54:20.527Z,93935.09
2023-02-24T18:56:47.045Z,93929.69
2023-02-24T18:59:13.617Z,93925.84
2023-02-24T19:01:40.305Z,93925.84
2023-02-24T19:04:08.373Z,93922.13
2023-02-24T19:06:35.606Z,93914.59
2023-02-24T19:09:10.330Z,93912.78
2023-02-24T19:11:38.605Z,93917.47
2023-02-24T19:14:05.496Z,93914.78
2023-02-24T19:16:33.212Z,93917.16
2023-02-24T19:19:00.394Z,93919.06
2023-02-24T19:21:29.328Z,93913.66
2023-02-24T19:23:56.207Z,93914.44
2023-02-24T19:26:25.507Z,93920.31
2023-02-24T19:28:52.969Z,93915.34
2023-02-24T19:31:25.480Z,93908.47
2023-02-24T19:33:53.361Z,93915.44
2023-02-24T19:36:20.725Z,93916.59
2023-02-24T19:38:47.452Z,93912.75
2023-02-24T19:41:14.021Z,93915.44
2023-02-24T19:43:40.705Z,93914.31
2023-02-24T19:46:10.181Z,93917.47
2023-02-24T19:48:36.892Z,93909.34
2023-02-24T19:51:22.399Z,93928.03
2023-02-24T19:53:52.805Z,93957.13
2023-02-24T19:56:27.665Z,93949.91
2023-02-24T19:58:56.294Z,93945.97
2023-02-24T20:01:24.018Z,93944.06
2023-02-24T20:03:54.786Z,93938.53
2023-02-24T20:06:34.217Z,93932.69
2023-02-24T20:09:01.699Z,93937.09
2023-02-24T20:11:28.924Z,93926.25
2023-02-24T20:13:55.472Z,93928.53
2023-02-24T20:16:23.285Z,93928.19
2023-02-24T20:18:50.198Z,93929.47
2023-02-24T20:21:16.908Z,93924.47
2023-02-24T20:23:43.608Z,93930.56
2023-02-24T20:26:12.184Z,93934.44
2023-02-24T20:28:38.800Z,93926.31
2023-02-24T20:31:08.418Z,93926.19
2023-02-24T20:33:35.306Z,93915.84
2023-02-24T20:36:07.485Z,93921.13
2023-02-24T20:38:34.117Z,93910.97
2023-02-24T20:41:00.791Z,93916.03
2023-02-24T20:43:27.795Z,93910.97
2023-02-24T20:45:54.932Z,93916.38
2023-02-24T20:48:21.929Z,93910.19
2023-02-24T20:50:49.936Z,93895.22
2023-02-24T20:53:16.910Z,93899.63
2023-02-24T20:55:43.551Z,93897.44
2023-02-24T20:58:10.572Z,93890.47
2023-02-24T21:00:37.160Z,93904.09
2023-02-24T21:03:04.335Z,93914.94
2023-02-24T21:05:30.815Z,93920.22
2023-02-24T21:07:57.355Z,93924.84
2023-02-24T21:10:23.886Z,93917.28
2023-02-24T21:12:50.795Z,93912.31
2023-02-24T21:15:17.391Z,93924.16
2023-02-24T21:17:44.209Z,93925.16
2023-02-24T21:20:11.565Z,93929.47
2023-02-24T21:22:41.452Z,93937.47
2023-02-24T21:25:09.466Z,93944.03
2023-02-24T21:27:36.825Z,93935.13
2023-02-24T21:30:05.673Z,93945.94
2023-02-24T21:32:32.456Z,93940.75
2023-02-24T21:34:59.124Z,93950.03
2023-02-24T21:37:25.875Z,93944.16
2023-02-24T21:39:52.421Z,93946.31
2023-02-24T21:42:19.270Z,93949.25
2023-02-24T21:44:45.904Z,93954.16
2023-02-24T21:47:12.398Z,93954.25
2023-02-24T21:49:38.976Z,93962.22
2023-02-24T21:52:05.785Z,93937.34
2023-02-24T21:54:32.764Z,93936.81
2023-02-24T21:56:59.404Z,93928.81
2023-02-24T21:59:25.982Z,93923.63
2023-02-24T22:01:52.631Z,93927.34
2023-02-24T22:04:19.168Z,93915.16
2023-02-24T22:06:45.804Z,93909.19
2023-02-24T22:09:13.986Z,93899.72
2023-02-24T22:11:40.960Z,93903.13
2023-02-24T22:14:12.525Z,93903.59
2023-02-24T22:16:39.893Z,93908.22
2023-02-24T22:19:07.063Z,93905.06
2023-02-24T22:21:34.064Z,93905.25
2023-02-24T22:24:02.983Z,93908.13
2023-02-24T22:26:31.046Z,93918.44
2023-02-24T22:28:58.373Z,93917.69
2023-02-24T22:31:27.907Z,93923.69
2023-02-24T22:33:54.477Z,93930.38
2023-02-24T22:36:23.750Z,93932.00
2023-02-24T22:38:50.770Z,93932.00
2023-02-24T22:41:23.289Z,93932.34
2023-02-24T22:43:50.624Z,93935.84
2023-02-24T22:46:22.038Z,93927.63
2023-02-24T22:48:49.012Z,93912.56
2023-02-24T22:51:15.958Z,93907.03
2023-02-24T22:53:44.458Z,93924.94
2023-02-24T22:56:12.964Z,93900.75
2023-02-24T22:58:40.145Z,93898.06
2023-02-24T23:01:11.746Z,93910.25
2023-02-24T23:03:39.075Z,93910.13
2023-02-24T23:06:11.085Z,93921.06
2023-02-24T23:08:38.588Z,93926.28
2023-02-24T23:11:14.650Z,93935.00
2023-02-24T23:13:43.849Z,93946.41
2023-02-24T23:16:12.694Z,93983.28
2023-02-24T23:18:40.125Z,94009.38
2023-02-24T23:21:10.036Z,94002.44
2023-02-24T23:23:37.875Z,94009.72
2023-02-24T23:26:05.327Z,93999.75
2023-02-24T23:28:32.090Z,94015.56
2023-02-24T23:30:58.730Z,94011.41
2023-02-24T23:33:25.819Z,94016.97
2023-02-24T23:35:52.290Z,94028.81
2023-02-24T23:38:19.018Z,94035.63
2023-02-24T23:40:50.630Z,94036.41
2023-02-24T23:43:17.940Z,94028.03
2023-02-24T23:45:45.057Z,94023.28
2023-02-24T23:48:13.852Z,94029.00
2023-02-24T23:50:42.424Z,94044.78
2023-02-24T23:53:09.276Z,94051.25
2023-02-24T23:55:38.251Z,94054.06
2023-02-24T23:58:04.971Z,94062.44
